createdAt,value
2023-01-07T00:00:08.175Z,1.17
2023-01-07T00:00:50.220Z,1.13
2023-01-07T00:01:35.011Z,1.20
2023-01-07T00:02:16.769Z,1.70
2023-01-07T00:02:58.479Z,1.00
2023-01-07T00:03:41.010Z,1.10
2023-01-07T00:04:23.618Z,1.30
2023-01-07T00:05:05.718Z,1.23
2023-01-07T00:05:47.450Z,1.10
2023-01-07T00:06:33.234Z,1.10
2023-01-07T00:07:14.970Z,1.10
2023-01-07T00:07:58.051Z,1.10
2023-01-07T00:08:41.384Z,1.30
2023-01-07T00:09:23.058Z,1.00
2023-01-07T00:10:05.119Z,0.90
2023-01-07T00:10:46.781Z,1.00
2023-01-07T00:11:31.641Z,1.10
2023-01-07T00:12:13.287Z,1.00
2023-01-07T00:12:54.939Z,1.17
2023-01-07T00:13:37.537Z,1.20
2023-01-07T00:14:19.250Z,0.95
2023-01-07T00:15:00.920Z,1.20
2023-01-07T00:15:42.661Z,1.10
2023-01-07T00:16:27.337Z,1.00
2023-01-07T00:17:09.047Z,1.30
2023-01-07T00:17:50.761Z,1.08
2023-01-07T00:18:32.871Z,1.20
2023-01-07T00:19:16.178Z,1.10
2023-01-07T00:19:57.856Z,1.10
2023-01-07T00:20:39.804Z,1.10
2023-01-07T00:21:23.103Z,1.10
2023-01-07T00:22:04.773Z,0.93
2023-01-07T00:22:46.445Z,1.00
2023-01-07T00:23:29.568Z,1.00
2023-01-07T00:24:12.119Z,1.10
2023-01-07T00:24:53.785Z,1.08
2023-01-07T00:25:35.415Z,1.20
2023-01-07T00:26:19.509Z,1.00
2023-01-07T00:27:01.179Z,1.10
2023-01-07T00:27:42.869Z,1.20
2023-01-07T00:28:24.530Z,0.93
2023-01-07T00:29:07.052Z,1.02
2023-01-07T00:29:48.801Z,0.95
2023-01-07T00:30:30.509Z,1.10
2023-01-07T00:31:20.248Z,1.00
2023-01-07T00:32:01.966Z,1.00
2023-01-07T00:33:02.034Z,1.00
2023-01-07T00:33:56.626Z,1.10
2023-01-07T00:34:38.973Z,1.10
2023-01-07T00:35:23.489Z,1.20
2023-01-07T00:36:10.421Z,1.10
2023-01-07T00:37:12.095Z,1.30
2023-01-07T00:37:54.479Z,1.10
2023-01-07T00:38:39.753Z,1.10
2023-01-07T00:39:21.561Z,1.10
2023-01-07T00:40:03.282Z,0.90
2023-01-07T00:40:44.937Z,1.00
2023-01-07T00:41:27.006Z,1.10
2023-01-07T00:42:27.126Z,1.00
2023-01-07T00:43:08.805Z,1.00
2023-01-07T00:43:50.729Z,1.05
2023-01-07T00:44:33.031Z,1.00
2023-01-07T00:45:14.651Z,1.10
2023-01-07T00:45:57.005Z,1.27
2023-01-07T00:46:38.759Z,1.10
2023-01-07T00:47:20.507Z,1.25
2023-01-07T00:48:04.138Z,1.33
2023-01-07T00:48:46.121Z,1.30
2023-01-07T00:49:28.302Z,1.40
2023-01-07T00:50:10.076Z,1.20
2023-01-07T00:50:52.529Z,1.10
2023-01-07T00:51:34.224Z,1.10
2023-01-07T00:52:16.021Z,1.10
2023-01-07T00:52:58.244Z,1.10
2023-01-07T00:53:40.204Z,1.20
2023-01-07T00:54:21.970Z,1.10
2023-01-07T00:55:03.868Z,0.90
2023-01-07T00:55:45.799Z,0.90
2023-01-07T00:56:27.557Z,1.17
2023-01-07T00:57:12.863Z,1.10
2023-01-07T00:57:55.428Z,1.10
2023-01-07T00:58:37.787Z,1.00
2023-01-07T00:59:19.533Z,0.90
2023-01-07T01:00:01.337Z,1.40
2023-01-07T01:00:43.034Z,1.00
2023-01-07T01:01:24.810Z,0.90
2023-01-07T01:02:06.773Z,0.95
2023-01-07T01:02:49.753Z,1.20
2023-01-07T01:03:32.777Z,1.10
2023-01-07T01:04:14.773Z,1.40
2023-01-07T01:04:56.429Z,1.00
2023-01-07T01:05:38.867Z,0.90
2023-01-07T01:06:20.598Z,1.00
2023-01-07T01:07:02.272Z,1.00
2023-01-07T01:07:44.548Z,1.00
2023-01-07T01:08:26.202Z,1.00
2023-01-07T01:09:08.269Z,1.00
2023-01-07T01:09:50.256Z,1.00
2023-01-07T01:10:32.023Z,0.90
2023-01-07T01:11:15.581Z,0.90
2023-01-07T01:11:57.247Z,0.90
2023-01-07T01:12:39.701Z,0.90
2023-01-07T01:13:23.312Z,1.00
2023-01-07T01:14:05.055Z,1.00
2023-01-07T01:14:46.747Z,1.05
2023-01-07T01:15:28.404Z,0.98
2023-01-07T01:16:12.912Z,1.00
2023-01-07T01:16:54.626Z,1.00
2023-01-07T01:17:36.374Z,1.00
2023-01-07T01:18:18.090Z,0.90
2023-01-07T01:18:59.771Z,1.00
2023-01-07T01:19:41.417Z,1.00
2023-01-07T01:20:23.443Z,1.00
2023-01-07T01:21:06.681Z,1.00
2023-01-07T01:21:48.356Z,0.90
2023-01-07T01:22:30.081Z,1.00
2023-01-07T01:23:12.237Z,0.98
2023-01-07T01:23:54.028Z,1.00
2023-01-07T01:24:35.683Z,1.10
2023-01-07T01:25:17.483Z,1.10
2023-01-07T01:26:07.092Z,0.90
2023-01-07T01:26:48.732Z,0.90
2023-01-07T01:27:31.403Z,1.00
2023-01-07T01:28:13.059Z,1.00
2023-01-07T01:28:54.756Z,1.10
2023-01-07T01:29:36.466Z,1.20
2023-01-07T01:30:18.734Z,1.02
2023-01-07T01:31:00.837Z,1.00
2023-01-07T01:31:42.797Z,1.20
2023-01-07T01:32:24.632Z,1.02
2023-01-07T01:33:06.296Z,1.10
2023-01-07T01:33:47.953Z,0.98
2023-01-07T01:34:29.698Z,1.10
2023-01-07T01:35:11.364Z,1.10
2023-01-07T01:35:53.064Z,1.30
2023-01-07T01:36:34.710Z,1.10
2023-01-07T01:37:16.750Z,1.20
2023-01-07T01:38:00.565Z,1.20
2023-01-07T01:38:42.960Z,1.20
2023-01-07T01:39:24.721Z,1.10
2023-01-07T01:40:07.178Z,1.20
2023-01-07T01:40:49.028Z,1.40
2023-01-07T01:41:31.550Z,1.30
2023-01-07T01:42:15.118Z,1.20
2023-01-07T01:42:56.823Z,1.10
2023-01-07T01:43:41.169Z,1.20
2023-01-07T01:44:39.398Z,1.20
2023-01-07T01:45:21.039Z,1.70
2023-01-07T01:46:09.092Z,1.55
2023-01-07T01:46:50.995Z,1.20
2023-01-07T01:47:50.099Z,1.20
2023-01-07T01:48:35.236Z,1.20
2023-01-07T01:49:30.752Z,1.20
2023-01-07T01:50:38.117Z,1.40
2023-01-07T01:51:24.267Z,1.30
2023-01-07T01:52:13.696Z,1.38
2023-01-07T01:53:01.845Z,1.30
2023-01-07T01:53:43.610Z,1.25
2023-01-07T01:54:26.121Z,1.20
2023-01-07T01:55:09.165Z,1.30
2023-01-07T01:56:14.122Z,1.40
2023-01-07T01:56:59.701Z,1.50
2023-01-07T01:57:41.765Z,1.40
2023-01-07T01:58:37.142Z,1.80
2023-01-07T01:59:23.423Z,1.50
2023-01-07T02:00:07.296Z,1.50
2023-01-07T02:00:49.560Z,1.50
2023-01-07T02:01:34.583Z,2.10
2023-01-07T02:02:24.645Z,2.10
2023-01-07T02:03:09.558Z,1.83
2023-01-07T02:03:52.643Z,2.10
2023-01-07T02:04:34.985Z,2.35
2023-01-07T02:05:17.005Z,2.28
2023-01-07T02:05:59.938Z,2.20
2023-01-07T02:06:51.149Z,2.00
2023-01-07T02:07:32.875Z,1.90
2023-01-07T02:08:21.909Z,1.80
2023-01-07T02:09:04.072Z,2.08
2023-01-07T02:10:01.463Z,2.47
2023-01-07T02:10:43.288Z,1.90
2023-01-07T02:12:03.219Z,1.83
2023-01-07T02:13:00.794Z,2.10
2023-01-07T02:14:08.327Z,1.98
2023-01-07T02:14:49.960Z,2.00
2023-01-07T02:15:42.584Z,1.75
2023-01-07T02:16:37.833Z,1.67
2023-01-07T02:17:35.997Z,1.77
2023-01-07T02:18:32.689Z,1.60
2023-01-07T02:19:49.127Z,1.50
2023-01-07T02:20:38.201Z,1.80
2023-01-07T02:21:45.720Z,1.70
2023-01-07T02:23:15.690Z,1.52
2023-01-07T02:24:34.837Z,1.73
2023-01-07T02:25:44.245Z,1.70
2023-01-07T02:26:44.521Z,2.10
2023-01-07T02:27:50.463Z,1.80
2023-01-07T02:29:21.245Z,1.40
2023-01-07T02:30:21.357Z,1.40
2023-01-07T02:31:41.846Z,1.50
2023-01-07T02:32:42.168Z,1.50
2023-01-07T02:33:45.478Z,1.70
2023-01-07T02:34:54.536Z,1.70
2023-01-07T02:35:55.186Z,1.70
2023-01-07T02:36:45.770Z,1.60
2023-01-07T02:37:57.008Z,1.70
2023-01-07T02:38:55.942Z,1.55
2023-01-07T02:39:51.390Z,1.27
2023-01-07T02:40:58.928Z,1.90
2023-01-07T02:42:01.977Z,1.65
2023-01-07T02:42:58.565Z,1.67
2023-01-07T02:43:52.741Z,1.50
2023-01-07T02:44:42.780Z,1.60
2023-01-07T02:45:30.713Z,1.50
2023-01-07T02:46:25.007Z,1.50
2023-01-07T02:47:18.180Z,1.50
2023-01-07T02:48:09.977Z,1.73
2023-01-07T02:48:52.457Z,1.50
2023-01-07T02:49:35.177Z,1.70
2023-01-07T02:50:16.965Z,1.75
2023-01-07T02:50:58.592Z,1.60
2023-01-07T02:51:41.166Z,1.70
2023-01-07T02:52:28.377Z,1.50
2023-01-07T02:53:15.131Z,1.50
2023-01-07T02:53:56.801Z,1.55
2023-01-07T02:54:38.502Z,1.73
2023-01-07T02:55:29.163Z,2.00
2023-01-07T02:56:42.011Z,1.60
2023-01-07T02:57:59.843Z,1.30
2023-01-07T02:59:11.145Z,1.50
2023-01-07T02:59:55.822Z,1.60
2023-01-07T03:00:57.214Z,1.60
2023-01-07T03:02:04.889Z,1.65
2023-01-07T03:02:59.436Z,1.30
2023-01-07T03:04:02.899Z,1.50
2023-01-07T03:05:00.942Z,1.50
2023-01-07T03:06:11.743Z,1.70
2023-01-07T03:07:19.240Z,1.50
2023-01-07T03:08:22.382Z,1.67
2023-01-07T03:09:11.800Z,1.48
2023-01-07T03:09:53.382Z,1.83
2023-01-07T03:10:45.731Z,1.70
2023-01-07T03:11:34.486Z,1.50
2023-01-07T03:12:16.571Z,1.50
2023-01-07T03:13:08.347Z,1.60
2023-01-07T03:13:55.646Z,1.85
2023-01-07T03:14:39.864Z,1.63
2023-01-07T03:15:24.405Z,1.60
2023-01-07T03:16:12.334Z,1.70
2023-01-07T03:16:58.529Z,1.90
2023-01-07T03:17:49.806Z,1.60
2023-01-07T03:18:38.048Z,1.90
2023-01-07T03:19:31.972Z,1.60
2023-01-07T03:20:15.075Z,1.35
2023-01-07T03:21:03.846Z,1.60
2023-01-07T03:21:47.847Z,1.63
2023-01-07T03:22:32.807Z,2.00
2023-01-07T03:23:16.788Z,1.60
2023-01-07T03:23:58.974Z,1.70
2023-01-07T03:24:42.080Z,1.70
2023-01-07T03:25:26.318Z,1.70
2023-01-07T03:26:09.869Z,1.80
2023-01-07T03:26:54.829Z,1.90
2023-01-07T03:27:36.969Z,2.10
2023-01-07T03:28:24.631Z,1.80
2023-01-07T03:29:09.006Z,1.70
2023-01-07T03:29:52.777Z,1.77
2023-01-07T03:30:35.264Z,1.80
2023-01-07T03:31:19.164Z,1.90
2023-01-07T03:32:15.907Z,1.70
2023-01-07T03:33:08.122Z,1.90
2023-01-07T03:33:55.818Z,1.90
2023-01-07T03:34:38.274Z,1.60
2023-01-07T03:35:21.788Z,1.90
2023-01-07T03:36:06.620Z,1.80
2023-01-07T03:36:53.493Z,1.80
2023-01-07T03:37:35.600Z,1.88
2023-01-07T03:38:20.830Z,1.80
2023-01-07T03:39:03.843Z,1.77
2023-01-07T03:39:47.415Z,1.70
2023-01-07T03:40:29.473Z,1.80
2023-01-07T03:41:31.179Z,2.10
2023-01-07T03:42:33.548Z,1.83
2023-01-07T03:43:18.704Z,1.70
2023-01-07T03:44:00.370Z,2.03
2023-01-07T03:44:42.153Z,2.08
2023-01-07T03:45:25.888Z,1.90
2023-01-07T03:46:07.805Z,1.90
2023-01-07T03:46:50.628Z,1.92
2023-01-07T03:47:32.767Z,1.90
2023-01-07T03:48:14.430Z,1.90
2023-01-07T03:48:56.148Z,1.77
2023-01-07T03:49:38.638Z,1.80
2023-01-07T03:50:21.052Z,2.00
2023-01-07T03:51:02.875Z,2.10
2023-01-07T03:51:46.046Z,1.83
2023-01-07T03:52:27.798Z,2.38
2023-01-07T03:53:09.612Z,1.80
2023-01-07T03:53:51.323Z,2.00
2023-01-07T03:54:33.449Z,2.10
2023-01-07T03:55:15.375Z,2.20
2023-01-07T03:55:57.113Z,2.42
2023-01-07T03:56:38.835Z,2.50
2023-01-07T03:57:20.672Z,2.30
2023-01-07T03:58:02.392Z,2.50
2023-01-07T03:58:44.160Z,2.10
2023-01-07T03:59:25.937Z,2.10
2023-01-07T04:00:11.135Z,2.28
2023-01-07T04:00:55.347Z,2.40
2023-01-07T04:01:37.357Z,2.40
2023-01-07T04:02:19.168Z,2.00
2023-01-07T04:03:00.851Z,2.00
2023-01-07T04:03:42.540Z,1.90
2023-01-07T04:04:24.262Z,2.00
2023-01-07T04:05:06.659Z,2.03
2023-01-07T04:05:48.396Z,2.30
2023-01-07T04:06:30.139Z,2.10
2023-01-07T04:07:11.929Z,1.83
2023-01-07T04:07:53.644Z,2.28
2023-01-07T04:08:37.175Z,2.10
2023-01-07T04:09:18.983Z,2.30
2023-01-07T04:10:01.098Z,2.10
2023-01-07T04:10:43.625Z,1.90
2023-01-07T04:11:25.284Z,1.90
2023-01-07T04:12:07.281Z,1.80
2023-01-07T04:12:49.012Z,2.20
2023-01-07T04:13:30.742Z,2.10
2023-01-07T04:14:12.497Z,2.05
2023-01-07T04:14:54.301Z,2.00
2023-01-07T04:15:36.104Z,2.20
2023-01-07T04:16:17.845Z,2.30
2023-01-07T04:16:59.625Z,2.40
2023-01-07T04:17:41.386Z,2.03
2023-01-07T04:18:23.118Z,2.30
2023-01-07T04:19:04.854Z,2.22
2023-01-07T04:19:46.558Z,2.30
2023-01-07T04:20:28.237Z,2.00
2023-01-07T04:21:09.953Z,1.80
2023-01-07T04:21:51.756Z,2.10
2023-01-07T04:22:33.667Z,2.05
2023-01-07T04:23:16.370Z,2.15
2023-01-07T04:23:58.135Z,2.10
2023-01-07T04:24:39.880Z,1.90
2023-01-07T04:25:21.583Z,2.10
2023-01-07T04:26:03.371Z,2.35
2023-01-07T04:26:45.025Z,1.85
2023-01-07T04:27:26.749Z,2.10
2023-01-07T04:28:08.682Z,2.10
2023-01-07T04:28:50.378Z,2.40
2023-01-07T04:29:32.076Z,2.05
2023-01-07T04:30:13.951Z,2.10
2023-01-07T04:30:58.869Z,2.10
2023-01-07T04:31:40.584Z,2.10
2023-01-07T04:32:22.287Z,2.00
2023-01-07T04:33:04.761Z,1.95
2023-01-07T04:33:46.437Z,1.90
2023-01-07T04:34:28.099Z,2.00
2023-01-07T04:35:09.756Z,2.00
2023-01-07T04:35:51.380Z,1.80
2023-01-07T04:36:33.813Z,2.10
2023-01-07T04:37:15.471Z,2.05
2023-01-07T04:37:57.175Z,1.85
2023-01-07T04:38:39.027Z,2.00
2023-01-07T04:39:20.745Z,1.90
2023-01-07T04:40:02.679Z,2.00
2023-01-07T04:40:44.509Z,2.00
2023-01-07T04:41:26.142Z,1.90
2023-01-07T04:42:07.818Z,2.08
2023-01-07T04:42:49.518Z,2.00
2023-01-07T04:43:31.341Z,1.92
2023-01-07T04:44:15.178Z,1.85
2023-01-07T04:44:56.880Z,1.50
2023-01-07T04:45:38.538Z,1.63
2023-01-07T04:46:20.313Z,2.20
2023-01-07T04:47:02.134Z,2.03
2023-01-07T04:47:43.899Z,1.80
2023-01-07T04:48:25.638Z,2.00
2023-01-07T04:49:07.408Z,1.90
2023-01-07T04:49:49.072Z,2.08
2023-01-07T04:50:30.812Z,1.73
2023-01-07T04:51:12.483Z,1.60
2023-01-07T04:51:54.229Z,2.10
2023-01-07T04:52:36.493Z,2.00
2023-01-07T04:53:18.281Z,1.80
2023-01-07T04:53:59.972Z,1.90
2023-01-07T04:54:41.771Z,1.90
2023-01-07T04:55:23.573Z,2.10
2023-01-07T04:56:06.335Z,1.67
2023-01-07T04:56:48.086Z,1.70
2023-01-07T04:57:29.764Z,2.20
2023-01-07T04:58:11.610Z,2.30
2023-01-07T04:58:53.422Z,1.80
2023-01-07T04:59:35.141Z,2.13
2023-01-07T05:00:16.846Z,2.15
2023-01-07T05:00:59.604Z,1.60
2023-01-07T05:01:41.466Z,1.60
2023-01-07T05:02:23.273Z,1.60
2023-01-07T05:03:05.137Z,1.58
2023-01-07T05:03:46.934Z,1.90
2023-01-07T05:04:28.664Z,1.83
2023-01-07T05:05:10.770Z,1.73
2023-01-07T05:05:52.481Z,1.60
2023-01-07T05:06:34.135Z,1.67
2023-01-07T05:07:15.828Z,2.00
2023-01-07T05:07:57.538Z,1.70
2023-01-07T05:08:39.286Z,1.70
2023-01-07T05:09:21.002Z,1.40
2023-01-07T05:10:02.918Z,1.48
2023-01-07T05:10:44.617Z,1.60
2023-01-07T05:11:26.328Z,1.50
2023-01-07T05:12:08.078Z,1.50
2023-01-07T05:12:49.812Z,1.80
2023-01-07T05:13:32.356Z,1.80
2023-01-07T05:14:14.117Z,1.80
2023-01-07T05:14:55.762Z,1.55
2023-01-07T05:15:37.484Z,1.55
2023-01-07T05:16:19.315Z,1.60
2023-01-07T05:17:01.190Z,1.70
2023-01-07T05:17:43.016Z,1.90
2023-01-07T05:18:24.708Z,1.83
2023-01-07T05:19:06.360Z,1.90
2023-01-07T05:19:48.061Z,1.90
2023-01-07T05:20:29.753Z,1.65
2023-01-07T05:21:12.331Z,1.90
2023-01-07T05:21:54.310Z,1.90
2023-01-07T05:22:35.981Z,1.80
2023-01-07T05:23:17.657Z,1.60
2023-01-07T05:23:59.362Z,1.70
2023-01-07T05:24:41.039Z,1.60
2023-01-07T05:25:22.764Z,1.50
2023-01-07T05:26:04.589Z,1.60
2023-01-07T05:26:46.425Z,1.83
2023-01-07T05:27:28.179Z,1.67
2023-01-07T05:28:10.479Z,1.63
2023-01-07T05:28:52.234Z,1.52
2023-01-07T05:29:33.896Z,1.60
2023-01-07T05:30:15.699Z,1.50
2023-01-07T05:30:57.530Z,1.60
2023-01-07T05:31:39.271Z,1.70
2023-01-07T05:32:21.071Z,1.65
2023-01-07T05:33:02.781Z,1.90
2023-01-07T05:33:44.564Z,1.65
2023-01-07T05:34:26.346Z,1.40
2023-01-07T05:35:08.848Z,1.67
2023-01-07T05:35:50.599Z,1.67
2023-01-07T05:36:32.413Z,1.50
2023-01-07T05:37:14.158Z,1.50
2023-01-07T05:37:55.979Z,1.80
2023-01-07T05:38:37.748Z,1.70
2023-01-07T05:39:19.522Z,1.67
2023-01-07T05:40:01.217Z,1.45
2023-01-07T05:40:43.207Z,1.50
2023-01-07T05:41:24.964Z,1.60
2023-01-07T05:42:06.788Z,1.40
2023-01-07T05:42:48.467Z,1.80
2023-01-07T05:43:30.601Z,1.80
2023-01-07T05:44:12.325Z,1.70
2023-01-07T05:44:54.120Z,2.22
2023-01-07T05:45:35.816Z,2.10
2023-01-07T05:46:17.764Z,2.03
2023-01-07T05:46:59.547Z,1.95
2023-01-07T05:47:42.925Z,1.75
2023-01-07T05:48:24.903Z,1.70
2023-01-07T05:49:07.003Z,2.08
2023-01-07T05:49:48.737Z,2.10
2023-01-07T05:50:30.508Z,1.90
2023-01-07T05:51:12.208Z,1.90
2023-01-07T05:51:53.980Z,1.77
2023-01-07T05:52:35.732Z,1.77
2023-01-07T05:53:17.690Z,1.73
2023-01-07T05:53:59.355Z,1.88
2023-01-07T05:54:41.028Z,2.00
2023-01-07T05:55:22.808Z,1.80
2023-01-07T05:56:04.757Z,1.83
2023-01-07T05:56:46.461Z,1.90
2023-01-07T05:57:28.170Z,1.70
2023-01-07T05:58:10.255Z,2.03
2023-01-07T05:58:51.931Z,2.20
2023-01-07T05:59:34.741Z,2.00
2023-01-07T06:00:16.835Z,1.90
2023-01-07T06:00:58.695Z,2.00
2023-01-07T06:01:40.377Z,2.08
2023-01-07T06:02:22.164Z,1.90
2023-01-07T06:03:04.928Z,2.08
2023-01-07T06:03:46.880Z,1.90
2023-01-07T06:04:28.911Z,2.10
2023-01-07T06:05:10.919Z,2.15
2023-01-07T06:05:52.968Z,2.30
2023-01-07T06:06:34.656Z,2.50
2023-01-07T06:07:16.475Z,2.40
2023-01-07T06:07:58.367Z,2.20
2023-01-07T06:08:40.433Z,2.30
2023-01-07T06:09:22.497Z,2.03
2023-01-07T06:10:04.624Z,1.80
2023-01-07T06:10:46.468Z,1.90
2023-01-07T06:11:28.162Z,2.13
2023-01-07T06:12:09.856Z,2.28
2023-01-07T06:12:51.541Z,1.90
2023-01-07T06:13:33.868Z,2.00
2023-01-07T06:14:15.614Z,2.00
2023-01-07T06:14:57.320Z,1.70
2023-01-07T06:15:39.119Z,1.90
2023-01-07T06:16:20.925Z,2.20
2023-01-07T06:17:02.669Z,2.10
2023-01-07T06:17:44.385Z,1.80
2023-01-07T06:18:26.107Z,1.60
2023-01-07T06:19:07.847Z,1.90
2023-01-07T06:19:49.540Z,2.28
2023-01-07T06:20:34.643Z,2.20
2023-01-07T06:21:18.220Z,1.92
2023-01-07T06:21:59.910Z,1.92
2023-01-07T06:22:44.982Z,2.10
2023-01-07T06:23:26.845Z,1.90
2023-01-07T06:24:08.779Z,1.90
2023-01-07T06:24:50.452Z,1.88
2023-01-07T06:25:32.224Z,2.10
2023-01-07T06:26:13.925Z,2.10
2023-01-07T06:26:55.627Z,1.92
2023-01-07T06:27:37.543Z,2.38
2023-01-07T06:28:19.308Z,1.80
2023-01-07T06:29:01.119Z,2.10
2023-01-07T06:29:42.883Z,2.10
2023-01-07T06:30:24.672Z,2.00
2023-01-07T06:31:06.442Z,2.10
2023-01-07T06:31:48.255Z,1.90
2023-01-07T06:32:29.925Z,1.90
2023-01-07T06:33:12.016Z,2.00
2023-01-07T06:33:53.730Z,1.90
2023-01-07T06:34:35.503Z,1.90
2023-01-07T06:35:17.302Z,1.80
2023-01-07T06:35:59.008Z,1.58
2023-01-07T06:36:40.715Z,2.00
2023-01-07T06:37:22.446Z,2.20
2023-01-07T06:38:04.170Z,2.00
2023-01-07T06:38:45.924Z,1.90
2023-01-07T06:39:27.647Z,1.70
2023-01-07T06:40:09.712Z,1.90
2023-01-07T06:40:51.477Z,1.80
2023-01-07T06:41:33.316Z,1.90
2023-01-07T06:42:15.053Z,2.05
2023-01-07T06:42:56.822Z,2.20
2023-01-07T06:43:38.565Z,2.00
2023-01-07T06:44:20.342Z,2.20
2023-01-07T06:45:02.065Z,2.20
2023-01-07T06:45:43.774Z,2.00
2023-01-07T06:46:25.686Z,1.73
2023-01-07T06:47:07.459Z,1.60
2023-01-07T06:47:49.198Z,1.80
2023-01-07T06:48:30.929Z,1.80
2023-01-07T06:49:12.627Z,1.90
2023-01-07T06:49:54.331Z,2.20
2023-01-07T06:50:36.163Z,2.10
2023-01-07T06:51:18.079Z,1.90
2023-01-07T06:51:59.746Z,2.03
2023-01-07T06:52:41.764Z,1.90
2023-01-07T06:53:23.469Z,1.92
2023-01-07T06:54:05.333Z,1.60
2023-01-07T06:54:48.477Z,1.60
2023-01-07T06:55:30.413Z,1.70
2023-01-07T06:56:12.098Z,1.50
2023-01-07T06:56:53.773Z,1.63
2023-01-07T06:57:35.564Z,1.80
2023-01-07T06:58:18.499Z,1.80
2023-01-07T06:59:00.299Z,1.63
2023-01-07T06:59:41.945Z,1.95
2023-01-07T07:00:23.782Z,1.90
2023-01-07T07:01:07.111Z,1.75
2023-01-07T07:01:48.942Z,1.60
2023-01-07T07:02:30.975Z,1.63
2023-01-07T07:03:12.980Z,1.90
2023-01-07T07:03:54.843Z,1.60
2023-01-07T07:04:36.556Z,1.60
2023-01-07T07:05:18.371Z,1.80
2023-01-07T07:06:00.416Z,2.20
2023-01-07T07:06:42.193Z,1.88
2023-01-07T07:07:24.222Z,1.80
2023-01-07T07:08:06.531Z,2.20
2023-01-07T07:08:48.262Z,1.90
2023-01-07T07:09:29.973Z,1.90
2023-01-07T07:10:12.402Z,2.22
2023-01-07T07:10:54.139Z,2.38
2023-01-07T07:11:35.873Z,2.10
2023-01-07T07:12:19.358Z,2.00
2023-01-07T07:13:01.292Z,2.10
2023-01-07T07:13:42.972Z,2.30
2023-01-07T07:14:24.761Z,1.83
2023-01-07T07:15:07.678Z,2.10
2023-01-07T07:15:49.927Z,2.20
2023-01-07T07:16:32.785Z,2.28
2023-01-07T07:17:14.612Z,2.25
2023-01-07T07:17:56.333Z,2.30
2023-01-07T07:18:38.135Z,2.10
2023-01-07T07:19:19.835Z,2.30
2023-01-07T07:20:01.700Z,2.40
2023-01-07T07:20:43.570Z,2.22
2023-01-07T07:21:25.321Z,2.00
2023-01-07T07:22:07.041Z,2.03
2023-01-07T07:22:49.385Z,2.00
2023-01-07T07:23:31.191Z,2.10
2023-01-07T07:24:12.998Z,1.90
2023-01-07T07:24:54.758Z,2.17
2023-01-07T07:25:36.436Z,2.20
2023-01-07T07:26:18.088Z,2.20
2023-01-07T07:27:00.250Z,2.30
2023-01-07T07:27:46.005Z,2.25
2023-01-07T07:28:27.657Z,2.38
2023-01-07T07:29:10.215Z,2.20
2023-01-07T07:29:52.049Z,2.80
2023-01-07T07:30:45.654Z,2.55
2023-01-07T07:31:29.732Z,2.75
2023-01-07T07:32:11.552Z,3.30
2023-01-07T07:32:53.278Z,2.92
2023-01-07T07:33:35.817Z,2.47
2023-01-07T07:34:17.523Z,2.80
2023-01-07T07:34:59.255Z,2.70
2023-01-07T07:35:41.126Z,2.50
2023-01-07T07:36:22.811Z,3.13
2023-01-07T07:37:04.561Z,3.17
2023-01-07T07:37:46.201Z,2.65
2023-01-07T07:38:28.107Z,2.88
2023-01-07T07:39:11.945Z,3.20
2023-01-07T07:39:53.670Z,2.35
2023-01-07T07:40:35.584Z,1.83
2023-01-07T07:41:17.369Z,1.80
2023-01-07T07:42:01.800Z,1.70
2023-01-07T07:43:11.492Z,1.70
2023-01-07T07:43:45.139Z,1.40
2023-01-07T07:44:26.845Z,1.60
2023-01-07T07:45:09.421Z,1.73
2023-01-07T07:45:51.098Z,1.50
2023-01-07T07:46:32.927Z,1.40
2023-01-07T07:47:14.652Z,1.40
2023-01-07T07:47:56.417Z,1.40
2023-01-07T07:48:38.070Z,1.60
2023-01-07T07:49:19.731Z,1.40
2023-01-07T07:50:01.496Z,1.30
2023-01-07T07:50:43.322Z,1.60
2023-01-07T07:51:25.049Z,1.58
2023-01-07T07:52:06.867Z,1.83
2023-01-07T07:52:48.585Z,1.70
2023-01-07T07:53:30.561Z,1.40
2023-01-07T07:54:12.278Z,1.50
2023-01-07T07:54:53.972Z,1.60
2023-01-07T07:55:39.526Z,1.55
2023-01-07T07:56:21.261Z,1.52
2023-01-07T07:57:03.867Z,1.70
2023-01-07T07:57:45.548Z,1.75
2023-01-07T07:58:27.307Z,2.20
2023-01-07T07:59:09.038Z,2.03
2023-01-07T07:59:50.737Z,1.80
2023-01-07T08:00:33.043Z,1.95
2023-01-07T08:01:14.877Z,1.70
2023-01-07T08:01:57.171Z,1.50
2023-01-07T08:02:38.987Z,1.60
2023-01-07T08:03:20.808Z,1.80
2023-01-07T08:04:02.613Z,2.20
2023-01-07T08:04:44.348Z,2.40
2023-01-07T08:05:26.740Z,2.10
2023-01-07T08:06:09.540Z,1.50
2023-01-07T08:06:51.273Z,1.65
2023-01-07T08:07:33.579Z,1.75
2023-01-07T08:08:16.046Z,1.90
2023-01-07T08:08:57.759Z,1.70
2023-01-07T08:09:39.663Z,1.80
2023-01-07T08:10:21.974Z,1.60
2023-01-07T08:11:04.674Z,1.80
2023-01-07T08:11:46.420Z,1.80
2023-01-07T08:12:28.112Z,1.80
2023-01-07T08:13:10.179Z,2.00
2023-01-07T08:13:51.930Z,2.17
2023-01-07T08:14:34.074Z,2.08
2023-01-07T08:15:16.289Z,3.50
2023-01-07T08:15:58.093Z,3.13
2023-01-07T08:16:39.896Z,5.25
2023-01-07T08:17:21.708Z,5.75
2023-01-07T08:18:08.994Z,3.72
2023-01-07T08:18:50.692Z,3.50
2023-01-07T08:19:32.469Z,4.30
2023-01-07T08:20:14.263Z,3.42
2023-01-07T08:20:56.264Z,2.80
2023-01-07T08:21:37.961Z,2.72
2023-01-07T08:22:19.711Z,1.80
2023-01-07T08:23:02.904Z,1.67
2023-01-07T08:23:44.701Z,1.80
2023-01-07T08:24:26.449Z,2.20
2023-01-07T08:25:08.548Z,2.10
2023-01-07T08:25:50.226Z,1.80
2023-01-07T08:26:31.928Z,1.90
2023-01-07T08:27:13.660Z,1.90
2023-01-07T08:27:56.407Z,1.80
2023-01-07T08:28:38.875Z,1.60
2023-01-07T08:29:20.624Z,1.70
2023-01-07T08:30:02.364Z,1.80
2023-01-07T08:30:44.230Z,1.70
2023-01-07T08:31:26.019Z,1.70
2023-01-07T08:32:07.739Z,2.00
2023-01-07T08:32:49.782Z,1.60
2023-01-07T08:33:34.153Z,1.85
2023-01-07T08:34:16.033Z,2.35
2023-01-07T08:34:58.015Z,2.20
2023-01-07T08:35:39.735Z,1.85
2023-01-07T08:36:23.508Z,1.85
2023-01-07T08:37:05.495Z,1.80
2023-01-07T08:37:47.361Z,1.90
2023-01-07T08:38:31.455Z,1.80
2023-01-07T08:39:13.257Z,1.60
2023-01-07T08:39:55.052Z,1.83
2023-01-07T08:40:37.542Z,2.80
2023-01-07T08:41:20.784Z,3.33
2023-01-07T08:42:02.601Z,2.60
2023-01-07T08:42:44.357Z,2.60
2023-01-07T08:43:26.803Z,3.25
2023-01-07T08:44:09.560Z,2.70
2023-01-07T08:44:51.277Z,2.25
2023-01-07T08:45:33.027Z,2.95
2023-01-07T08:46:14.820Z,3.40
2023-01-07T08:46:56.666Z,4.15
2023-01-07T08:47:38.473Z,4.90
2023-01-07T08:48:20.527Z,3.50
2023-01-07T08:49:02.245Z,2.13
2023-01-07T08:49:44.012Z,1.90
2023-01-07T08:50:27.385Z,2.00
2023-01-07T08:51:09.202Z,2.20
2023-01-07T08:51:50.883Z,1.80
2023-01-07T08:52:32.624Z,1.70
2023-01-07T08:53:14.427Z,1.80
2023-01-07T08:53:56.181Z,2.28
2023-01-07T08:54:38.119Z,2.00
2023-01-07T08:55:20.406Z,1.85
2023-01-07T08:56:02.153Z,1.70
2023-01-07T08:56:43.948Z,1.67
2023-01-07T08:57:25.799Z,1.63
2023-01-07T08:58:07.474Z,1.80
2023-01-07T08:58:49.181Z,1.77
2023-01-07T08:59:30.976Z,1.60
2023-01-07T09:00:15.746Z,1.83
2023-01-07T09:01:06.410Z,1.90
2023-01-07T09:01:48.250Z,1.70
2023-01-07T09:02:30.069Z,1.40
2023-01-07T09:03:11.924Z,1.50
2023-01-07T09:03:53.698Z,1.73
2023-01-07T09:04:35.460Z,1.83
2023-01-07T09:05:17.471Z,1.70
2023-01-07T09:05:59.377Z,1.60
2023-01-07T09:06:41.143Z,1.60
2023-01-07T09:07:22.894Z,1.77
2023-01-07T09:08:04.900Z,2.60
2023-01-07T09:08:46.605Z,2.70
2023-01-07T09:09:28.325Z,1.70
2023-01-07T09:10:10.846Z,1.98
2023-01-07T09:10:52.551Z,2.25
2023-01-07T09:11:34.634Z,1.70
2023-01-07T09:12:16.404Z,1.70
2023-01-07T09:12:58.326Z,1.65
2023-01-07T09:13:40.091Z,1.70
2023-01-07T09:14:21.903Z,2.20
2023-01-07T09:15:04.477Z,2.20
2023-01-07T09:15:46.166Z,2.10
2023-01-07T09:16:27.982Z,1.80
2023-01-07T09:17:09.856Z,2.05
2023-01-07T09:17:51.842Z,1.90
2023-01-07T09:18:33.525Z,2.00
2023-01-07T09:19:15.348Z,2.08
2023-01-07T09:19:57.178Z,1.90
2023-01-07T09:20:39.211Z,1.48
2023-01-07T09:21:20.909Z,1.80
2023-01-07T09:22:02.637Z,2.40
2023-01-07T09:22:44.515Z,2.80
2023-01-07T09:23:26.258Z,2.60
2023-01-07T09:24:08.195Z,2.20
2023-01-07T09:24:49.964Z,2.20
2023-01-07T09:25:31.742Z,2.20
2023-01-07T09:26:13.673Z,1.92
2023-01-07T09:26:55.541Z,2.10
2023-01-07T09:27:37.993Z,2.75
2023-01-07T09:28:19.799Z,2.20
2023-01-07T09:29:01.556Z,1.80
2023-01-07T09:29:43.446Z,2.35
2023-01-07T09:30:25.216Z,2.42
2023-01-07T09:31:08.001Z,2.83
2023-01-07T09:31:49.836Z,2.40
2023-01-07T09:32:31.551Z,2.30
2023-01-07T09:33:13.323Z,2.10
2023-01-07T09:33:55.115Z,2.00
2023-01-07T09:34:37.882Z,2.05
2023-01-07T09:35:19.664Z,2.28
2023-01-07T09:36:01.410Z,2.10
2023-01-07T09:36:43.106Z,2.67
2023-01-07T09:37:24.909Z,1.90
2023-01-07T09:38:06.605Z,1.83
2023-01-07T09:38:48.338Z,2.10
2023-01-07T09:39:30.585Z,2.20
2023-01-07T09:40:31.127Z,1.90
2023-01-07T09:41:24.304Z,1.95
2023-01-07T09:42:23.775Z,2.10
2023-01-07T09:44:00.248Z,2.40
2023-01-07T09:45:08.207Z,2.40
2023-01-07T09:45:52.976Z,2.50
2023-01-07T09:46:34.965Z,2.60
2023-01-07T09:47:19.352Z,2.55